Aérodrome :
LOGIN :

S'inscrire | Disclaimer

   EN    FR    IT 

 










Légende :    VFR   VFR Marginal   IFR   IFR Intensif   IFR Très Intensif
Visi : 
Plafond : 
>= 8 km
>= 3000ft
5 à 8 km
1000 à 3000 ft
1500m à 5 km
500 à 1000 ft
800 à 1500m
200 à 500 ft
< 800m
< 200 ft
Symboles :   Orages  Brouillard  Fortes neiges  Fortes précipitations  Vent > 20 kt
SIGMETs :   Divers  Orages  Givrage  Turbulence  Onde Orograph.  Cendres Volcan.







- Altitude de l'aérodrome : 1674 ft
- Code IATA : BRN


LSZB - Bern Belp

DERNIER METAR :
  • 220550Z 14003KT 090V190 9999 BKN038 05/05 Q1019 NOSIG

METARs EXPIRÉS :
  • 220520Z 09004KT 050V150 9999 BKN039 05/04 Q1019 NOSIG
  • 220450Z 09005KT 010V130 9999 FEW041 BKN047 05/04 Q1019 NOSIG
  • 220420Z AUTO 11006KT 070V130 9999 FEW032 SCT046 BKN100 05/04 Q1019
  • 220350Z AUTO 12003KT 090V160 9999 FEW032 OVC046 06/05 Q1019
  • 220320Z AUTO 11003KT 9999 SCT031 SCT037 OVC050 06/05 Q1019

TAF TAF LSZB
Valide du 22 à 06h jusqu'au 22 à 15h UTC


220525Z 2206/2215 VRB03KT 9999 SCT030 BKN040
BECMG 2207/2210 25008KT 9999 FEW040
ATIS : +41 22 417 40 76
Pas de NOTAMs connus pour ce terrain.



MET'MAP, la Météo Aéronautique d'un coup d'oeil ! - Copyright ORBIFLY Décembre 2007 - Disclaimer

ORBIFLY MET'MAP TEAM :

Programmation & Développement : Alexandra Zaïnal
Conception & Développement : Baudouin d'Aumeries
Co-Programmation & Développement : Marc-Olivier Méhu
Soutien technique & logistique : Manuel Goepfert

Contact : metmap@orbifly.com




SOURCES & CREDITS :

   NOAA